sensor_id;sensor_type;location;lat;lon;timestamp;P1;durP1;ratioP1;P2;durP2;ratioP2
12385;SDS011;6257;57.634;18.310;2022-12-10T00:01:43;0.80;;;0.80;;
12385;SDS011;6257;57.634;18.310;2022-12-10T00:04:11;0.90;;;0.70;;
12385;SDS011;6257;57.634;18.310;2022-12-10T00:06:39;2.73;;;1.20;;
12385;SDS011;6257;57.634;18.310;2022-12-10T00:09:09;1.37;;;1.20;;
12385;SDS011;6257;57.634;18.310;2022-12-10T00:11:40;1.60;;;1.30;;
12385;SDS011;6257;57.634;18.310;2022-12-10T00:14:07;1.00;;;0.90;;
12385;SDS011;6257;57.634;18.310;2022-12-10T00:16:35;2.03;;;1.00;;
12385;SDS011;6257;57.634;18.310;2022-12-10T00:19:03;2.03;;;1.20;;
12385;SDS011;6257;57.634;18.310;2022-12-10T00:21:31;1.20;;;1.10;;
12385;SDS011;6257;57.634;18.310;2022-12-10T00:23:59;2.80;;;1.20;;
12385;SDS011;6257;57.634;18.310;2022-12-10T00:26:30;1.70;;;1.10;;
12385;SDS011;6257;57.634;18.310;2022-12-10T00:28:59;0.93;;;0.93;;
12385;SDS011;6257;57.634;18.310;2022-12-10T00:31:28;2.60;;;1.20;;
12385;SDS011;6257;57.634;18.310;2022-12-10T00:33:58;1.10;;;1.00;;
12385;SDS011;6257;57.634;18.310;2022-12-10T00:36:28;1.73;;;0.97;;
12385;SDS011;6257;57.634;18.310;2022-12-10T00:38:56;2.10;;;0.90;;
12385;SDS011;6257;57.634;18.310;2022-12-10T00:41:24;1.53;;;1.17;;
12385;SDS011;6257;57.634;18.310;2022-12-10T00:43:52;1.77;;;1.00;;
12385;SDS011;6257;57.634;18.310;2022-12-10T00:46:19;1.87;;;1.47;;
12385;SDS011;6257;57.634;18.310;2022-12-10T00:48:47;2.10;;;1.40;;
12385;SDS011;6257;57.634;18.310;2022-12-10T00:51:15;2.23;;;1.63;;
12385;SDS011;6257;57.634;18.310;2022-12-10T00:53:44;1.50;;;1.30;;
12385;SDS011;6257;57.634;18.310;2022-12-10T00:56:12;1.73;;;1.53;;
12385;SDS011;6257;57.634;18.310;2022-12-10T00:58:42;2.10;;;1.60;;
12385;SDS011;6257;57.634;18.310;2022-12-10T01:01:12;1.80;;;1.60;;
12385;SDS011;6257;57.634;18.310;2022-12-10T01:03:41;2.10;;;1.90;;
12385;SDS011;6257;57.634;18.310;2022-12-10T01:06:09;1.70;;;1.60;;
12385;SDS011;6257;57.634;18.310;2022-12-10T01:08:38;1.13;;;0.93;;
12385;SDS011;6257;57.634;18.310;2022-12-10T01:11:05;1.20;;;0.90;;
12385;SDS011;6257;57.634;18.310;2022-12-10T01:13:33;1.07;;;0.93;;
12385;SDS011;6257;57.634;18.310;2022-12-10T01:16:01;1.27;;;0.90;;
12385;SDS011;6257;57.634;18.310;2022-12-10T01:18:30;1.23;;;0.90;;
12385;SDS011;6257;57.634;18.310;2022-12-10T01:21:00;2.10;;;0.90;;
12385;SDS011;6257;57.634;18.310;2022-12-10T01:23:31;2.43;;;1.00;;
12385;SDS011;6257;57.634;18.310;2022-12-10T01:25:59;1.00;;;0.80;;
12385;SDS011;6257;57.634;18.310;2022-12-10T01:28:28;1.07;;;0.97;;
12385;SDS011;6257;57.634;18.310;2022-12-10T01:30:59;1.57;;;1.20;;
12385;SDS011;6257;57.634;18.310;2022-12-10T01:33:29;1.50;;;1.00;;
12385;SDS011;6257;57.634;18.310;2022-12-10T01:36:00;3.20;;;0.90;;
12385;SDS011;6257;57.634;18.310;2022-12-10T01:38:29;1.60;;;0.93;;
12385;SDS011;6257;57.634;18.310;2022-12-10T01:40:56;1.53;;;1.00;;
12385;SDS011;6257;57.634;18.310;2022-12-10T01:43:23;1.13;;;1.00;;
12385;SDS011;6257;57.634;18.310;2022-12-10T01:45:51;1.03;;;0.93;;
12385;SDS011;6257;57.634;18.310;2022-12-10T01:48:18;1.47;;;1.37;;
12385;SDS011;6257;57.634;18.310;2022-12-10T01:50:46;2.73;;;1.30;;
12385;SDS011;6257;57.634;18.310;2022-12-10T01:53:13;1.77;;;1.47;;
12385;SDS011;6257;57.634;18.310;2022-12-10T01:55:43;2.80;;;1.93;;
12385;SDS011;6257;57.634;18.310;2022-12-10T01:58:13;2.73;;;1.87;;
12385;SDS011;6257;57.634;18.310;2022-12-10T02:00:44;2.50;;;1.90;;
12385;SDS011;6257;57.634;18.310;2022-12-10T02:03:24;4.07;;;2.53;;
12385;SDS011;6257;57.634;18.310;2022-12-10T02:06:02;5.27;;;3.03;;
12385;SDS011;6257;57.634;18.310;2022-12-10T02:08:40;3.10;;;2.30;;
12385;SDS011;6257;57.634;18.310;2022-12-10T02:11:14;4.07;;;2.50;;
12385;SDS011;6257;57.634;18.310;2022-12-10T02:13:49;2.80;;;1.60;;
12385;SDS011;6257;57.634;18.310;2022-12-10T02:16:29;2.90;;;1.30;;
12385;SDS011;6257;57.634;18.310;2022-12-10T02:19:00;1.30;;;1.10;;
12385;SDS011;6257;57.634;18.310;2022-12-10T02:21:41;1.37;;;1.20;;
12385;SDS011;6257;57.634;18.310;2022-12-10T02:24:13;1.40;;;0.93;;
12385;SDS011;6257;57.634;18.310;2022-12-10T02:26:46;1.27;;;1.13;;
12385;SDS011;6257;57.634;18.310;2022-12-10T02:29:19;1.67;;;1.10;;
12385;SDS011;6257;57.634;18.310;2022-12-10T02:31:47;1.10;;;0.90;;
12385;SDS011;6257;57.634;18.310;2022-12-10T02:34:18;3.73;;;1.13;;
12385;SDS011;6257;57.634;18.310;2022-12-10T02:36:48;3.13;;;1.40;;
12385;SDS011;6257;57.634;18.310;2022-12-10T02:39:19;1.10;;;1.00;;
12385;SDS011;6257;57.634;18.310;2022-12-10T02:41:51;1.00;;;0.90;;
12385;SDS011;6257;57.634;18.310;2022-12-10T02:44:21;1.80;;;1.23;;
12385;SDS011;6257;57.634;18.310;2022-12-10T02:46:53;1.57;;;0.83;;
12385;SDS011;6257;57.634;18.310;2022-12-10T02:49:23;1.30;;;1.00;;
12385;SDS011;6257;57.634;18.310;2022-12-10T02:51:51;1.40;;;1.00;;
12385;SDS011;6257;57.634;18.310;2022-12-10T02:54:33;3.27;;;1.43;;
12385;SDS011;6257;57.634;18.310;2022-12-10T02:57:06;1.83;;;0.90;;
12385;SDS011;6257;57.634;18.310;2022-12-10T02:59:55;1.83;;;1.00;;
12385;SDS011;6257;57.634;18.310;2022-12-10T03:02:34;3.33;;;1.17;;
12385;SDS011;6257;57.634;18.310;2022-12-10T03:05:11;1.00;;;0.80;;
12385;SDS011;6257;57.634;18.310;2022-12-10T03:07:43;1.47;;;1.00;;
12385;SDS011;6257;57.634;18.310;2022-12-10T03:10:14;2.47;;;1.20;;
12385;SDS011;6257;57.634;18.310;2022-12-10T03:12:54;1.43;;;1.13;;
12385;SDS011;6257;57.634;18.310;2022-12-10T03:15:27;1.80;;;1.13;;
12385;SDS011;6257;57.634;18.310;2022-12-10T03:17:59;1.50;;;1.27;;
12385;SDS011;6257;57.634;18.310;2022-12-10T03:20:29;1.93;;;1.60;;
12385;SDS011;6257;57.634;18.310;2022-12-10T03:22:58;2.50;;;1.40;;
12385;SDS011;6257;57.634;18.310;2022-12-10T03:25:27;3.50;;;1.50;;
12385;SDS011;6257;57.634;18.310;2022-12-10T03:27:56;1.60;;;1.50;;
12385;SDS011;6257;57.634;18.310;2022-12-10T03:30:28;1.77;;;1.50;;
12385;SDS011;6257;57.634;18.310;2022-12-10T03:32:58;2.23;;;1.40;;
12385;SDS011;6257;57.634;18.310;2022-12-10T03:35:26;3.10;;;1.70;;
12385;SDS011;6257;57.634;18.310;2022-12-10T03:37:53;2.43;;;1.50;;
12385;SDS011;6257;57.634;18.310;2022-12-10T03:40:22;2.90;;;1.50;;
12385;SDS011;6257;57.634;18.310;2022-12-10T03:42:50;1.63;;;1.50;;
12385;SDS011;6257;57.634;18.310;2022-12-10T03:45:17;2.03;;;1.20;;
12385;SDS011;6257;57.634;18.310;2022-12-10T03:47:46;2.00;;;1.50;;
12385;SDS011;6257;57.634;18.310;2022-12-10T03:50:14;2.03;;;1.50;;
12385;SDS011;6257;57.634;18.310;2022-12-10T03:52:42;2.47;;;1.40;;
12385;SDS011;6257;57.634;18.310;2022-12-10T03:55:09;1.83;;;1.57;;
12385;SDS011;6257;57.634;18.310;2022-12-10T03:57:37;2.03;;;1.47;;
12385;SDS011;6257;57.634;18.310;2022-12-10T04:00:05;2.00;;;1.70;;
12385;SDS011;6257;57.634;18.310;2022-12-10T04:02:33;2.10;;;1.40;;
12385;SDS011;6257;57.634;18.310;2022-12-10T04:05:01;1.57;;;1.47;;
12385;SDS011;6257;57.634;18.310;2022-12-10T04:07:30;1.60;;;1.50;;
12385;SDS011;6257;57.634;18.310;2022-12-10T04:09:57;2.23;;;1.40;;
12385;SDS011;6257;57.634;18.310;2022-12-10T04:12:24;1.40;;;1.23;;
12385;SDS011;6257;57.634;18.310;2022-12-10T04:14:51;1.87;;;1.37;;
12385;SDS011;6257;57.634;18.310;2022-12-10T04:17:36;1.60;;;1.40;;
12385;SDS011;6257;57.634;18.310;2022-12-10T04:20:05;2.03;;;1.30;;
12385;SDS011;6257;57.634;18.310;2022-12-10T04:22:53;1.80;;;1.30;;
12385;SDS011;6257;57.634;18.310;2022-12-10T04:25:38;1.43;;;1.13;;
12385;SDS011;6257;57.634;18.310;2022-12-10T04:28:22;1.63;;;1.37;;
12385;SDS011;6257;57.634;18.310;2022-12-10T04:30:49;3.07;;;1.27;;
12385;SDS011;6257;57.634;18.310;2022-12-10T04:33:16;1.40;;;1.00;;
12385;SDS011;6257;57.634;18.310;2022-12-10T04:35:45;1.73;;;0.97;;
12385;SDS011;6257;57.634;18.310;2022-12-10T04:38:12;1.53;;;1.30;;
12385;SDS011;6257;57.634;18.310;2022-12-10T04:40:40;1.20;;;1.00;;
12385;SDS011;6257;57.634;18.310;2022-12-10T04:43:07;1.20;;;1.10;;
12385;SDS011;6257;57.634;18.310;2022-12-10T04:45:34;1.27;;;1.10;;
12385;SDS011;6257;57.634;18.310;2022-12-10T04:48:01;1.43;;;1.17;;
12385;SDS011;6257;57.634;18.310;2022-12-10T04:50:29;3.37;;;1.10;;
12385;SDS011;6257;57.634;18.310;2022-12-10T04:52:57;1.10;;;0.90;;
12385;SDS011;6257;57.634;18.310;2022-12-10T04:55:24;2.57;;;1.10;;
12385;SDS011;6257;57.634;18.310;2022-12-10T04:57:51;1.30;;;1.10;;
12385;SDS011;6257;57.634;18.310;2022-12-10T05:00:19;1.17;;;1.07;;
12385;SDS011;6257;57.634;18.310;2022-12-10T05:02:47;1.30;;;1.20;;
12385;SDS011;6257;57.634;18.310;2022-12-10T05:05:15;2.27;;;1.27;;
12385;SDS011;6257;57.634;18.310;2022-12-10T05:07:43;1.20;;;0.90;;
12385;SDS011;6257;57.634;18.310;2022-12-10T05:10:11;1.23;;;1.03;;
12385;SDS011;6257;57.634;18.310;2022-12-10T05:12:38;1.40;;;1.10;;
12385;SDS011;6257;57.634;18.310;2022-12-10T05:15:06;1.17;;;1.00;;
12385;SDS011;6257;57.634;18.310;2022-12-10T05:17:34;1.40;;;1.10;;
12385;SDS011;6257;57.634;18.310;2022-12-10T05:20:01;1.27;;;1.10;;
12385;SDS011;6257;57.634;18.310;2022-12-10T05:22:29;1.30;;;1.10;;
12385;SDS011;6257;57.634;18.310;2022-12-10T05:25:15;1.23;;;1.00;;
12385;SDS011;6257;57.634;18.310;2022-12-10T05:27:42;2.03;;;1.20;;
12385;SDS011;6257;57.634;18.310;2022-12-10T05:30:09;1.20;;;0.87;;
12385;SDS011;6257;57.634;18.310;2022-12-10T05:32:37;1.30;;;1.13;;
12385;SDS011;6257;57.634;18.310;2022-12-10T05:35:04;2.00;;;1.40;;
12385;SDS011;6257;57.634;18.310;2022-12-10T05:37:32;1.37;;;1.23;;
12385;SDS011;6257;57.634;18.310;2022-12-10T05:39:59;1.93;;;1.40;;
12385;SDS011;6257;57.634;18.310;2022-12-10T05:42:28;1.37;;;1.03;;
12385;SDS011;6257;57.634;18.310;2022-12-10T05:44:55;1.30;;;1.13;;
12385;SDS011;6257;57.634;18.310;2022-12-10T05:47:22;1.67;;;1.20;;
12385;SDS011;6257;57.634;18.310;2022-12-10T05:49:49;1.30;;;1.20;;
12385;SDS011;6257;57.634;18.310;2022-12-10T05:52:17;1.97;;;1.10;;
12385;SDS011;6257;57.634;18.310;2022-12-10T05:54:44;1.40;;;1.20;;
12385;SDS011;6257;57.634;18.310;2022-12-10T05:57:11;2.60;;;1.30;;
12385;SDS011;6257;57.634;18.310;2022-12-10T05:59:40;1.53;;;1.00;;
12385;SDS011;6257;57.634;18.310;2022-12-10T06:02:08;1.13;;;1.03;;
12385;SDS011;6257;57.634;18.310;2022-12-10T06:04:35;2.47;;;1.00;;
12385;SDS011;6257;57.634;18.310;2022-12-10T06:07:02;1.53;;;1.17;;
12385;SDS011;6257;57.634;18.310;2022-12-10T06:09:29;1.60;;;1.03;;
12385;SDS011;6257;57.634;18.310;2022-12-10T06:11:57;1.33;;;1.13;;
12385;SDS011;6257;57.634;18.310;2022-12-10T06:14:24;1.40;;;1.07;;
12385;SDS011;6257;57.634;18.310;2022-12-10T06:16:52;1.60;;;1.10;;
12385;SDS011;6257;57.634;18.310;2022-12-10T06:19:19;1.17;;;1.07;;
12385;SDS011;6257;57.634;18.310;2022-12-10T06:21:46;1.53;;;0.90;;
12385;SDS011;6257;57.634;18.310;2022-12-10T06:24:14;1.60;;;1.10;;
12385;SDS011;6257;57.634;18.310;2022-12-10T06:26:40;1.33;;;0.80;;
12385;SDS011;6257;57.634;18.310;2022-12-10T06:29:08;1.50;;;1.20;;
12385;SDS011;6257;57.634;18.310;2022-12-10T06:31:36;1.37;;;1.20;;
12385;SDS011;6257;57.634;18.310;2022-12-10T06:34:04;2.43;;;1.30;;
12385;SDS011;6257;57.634;18.310;2022-12-10T06:36:31;3.10;;;1.30;;
12385;SDS011;6257;57.634;18.310;2022-12-10T06:38:58;1.80;;;1.30;;
12385;SDS011;6257;57.634;18.310;2022-12-10T06:41:25;1.63;;;1.30;;
12385;SDS011;6257;57.634;18.310;2022-12-10T06:43:53;1.70;;;1.10;;
12385;SDS011;6257;57.634;18.310;2022-12-10T06:46:23;2.03;;;1.27;;
12385;SDS011;6257;57.634;18.310;2022-12-10T06:48:52;1.77;;;1.37;;
12385;SDS011;6257;57.634;18.310;2022-12-10T06:51:21;0.93;;;0.90;;
12385;SDS011;6257;57.634;18.310;2022-12-10T06:53:48;1.40;;;1.30;;
12385;SDS011;6257;57.634;18.310;2022-12-10T06:56:16;1.70;;;1.37;;
12385;SDS011;6257;57.634;18.310;2022-12-10T06:58:45;1.40;;;1.20;;
12385;SDS011;6257;57.634;18.310;2022-12-10T07:01:14;1.10;;;1.00;;
12385;SDS011;6257;57.634;18.310;2022-12-10T07:03:42;1.43;;;1.20;;
12385;SDS011;6257;57.634;18.310;2022-12-10T07:06:10;2.30;;;1.27;;
12385;SDS011;6257;57.634;18.310;2022-12-10T07:08:39;1.20;;;1.10;;
12385;SDS011;6257;57.634;18.310;2022-12-10T07:11:07;1.77;;;1.23;;
12385;SDS011;6257;57.634;18.310;2022-12-10T07:13:35;1.63;;;1.20;;
12385;SDS011;6257;57.634;18.310;2022-12-10T07:16:03;1.77;;;1.30;;
12385;SDS011;6257;57.634;18.310;2022-12-10T07:18:38;1.57;;;1.27;;
12385;SDS011;6257;57.634;18.310;2022-12-10T07:21:12;1.20;;;1.10;;
12385;SDS011;6257;57.634;18.310;2022-12-10T07:23:41;2.17;;;1.27;;
12385;SDS011;6257;57.634;18.310;2022-12-10T07:26:08;1.30;;;1.20;;
12385;SDS011;6257;57.634;18.310;2022-12-10T07:28:36;2.17;;;1.20;;
12385;SDS011;6257;57.634;18.310;2022-12-10T07:31:03;1.43;;;1.27;;
12385;SDS011;6257;57.634;18.310;2022-12-10T07:33:31;1.90;;;1.40;;
12385;SDS011;6257;57.634;18.310;2022-12-10T07:35:58;1.50;;;1.30;;
12385;SDS011;6257;57.634;18.310;2022-12-10T07:38:29;1.47;;;1.27;;
12385;SDS011;6257;57.634;18.310;2022-12-10T07:40:57;2.20;;;1.37;;
12385;SDS011;6257;57.634;18.310;2022-12-10T07:43:28;2.00;;;1.50;;
12385;SDS011;6257;57.634;18.310;2022-12-10T07:45:55;1.60;;;1.50;;
12385;SDS011;6257;57.634;18.310;2022-12-10T07:48:22;1.33;;;1.10;;
12385;SDS011;6257;57.634;18.310;2022-12-10T07:50:55;2.00;;;1.20;;
12385;SDS011;6257;57.634;18.310;2022-12-10T07:53:22;2.00;;;1.43;;
12385;SDS011;6257;57.634;18.310;2022-12-10T07:55:50;1.77;;;1.20;;
12385;SDS011;6257;57.634;18.310;2022-12-10T07:58:19;1.53;;;1.40;;
12385;SDS011;6257;57.634;18.310;2022-12-10T08:00:46;1.60;;;1.17;;
12385;SDS011;6257;57.634;18.310;2022-12-10T08:03:13;1.80;;;1.30;;
12385;SDS011;6257;57.634;18.310;2022-12-10T08:05:40;1.30;;;0.90;;
12385;SDS011;6257;57.634;18.310;2022-12-10T08:08:08;1.33;;;1.23;;
12385;SDS011;6257;57.634;18.310;2022-12-10T08:10:35;1.43;;;1.10;;
12385;SDS011;6257;57.634;18.310;2022-12-10T08:13:03;1.63;;;1.20;;
12385;SDS011;6257;57.634;18.310;2022-12-10T08:15:32;2.23;;;1.33;;
12385;SDS011;6257;57.634;18.310;2022-12-10T08:17:59;1.43;;;1.17;;
12385;SDS011;6257;57.634;18.310;2022-12-10T08:20:26;1.40;;;1.03;;
12385;SDS011;6257;57.634;18.310;2022-12-10T08:22:53;1.10;;;1.00;;
12385;SDS011;6257;57.634;18.310;2022-12-10T08:25:20;1.20;;;1.00;;
12385;SDS011;6257;57.634;18.310;2022-12-10T08:27:48;1.63;;;1.07;;
12385;SDS011;6257;57.634;18.310;2022-12-10T08:30:15;2.40;;;1.60;;
12385;SDS011;6257;57.634;18.310;2022-12-10T08:32:44;2.33;;;1.80;;
12385;SDS011;6257;57.634;18.310;2022-12-10T08:35:11;2.30;;;1.73;;
12385;SDS011;6257;57.634;18.310;2022-12-10T08:37:40;1.80;;;1.70;;
12385;SDS011;6257;57.634;18.310;2022-12-10T08:40:08;2.40;;;2.20;;
12385;SDS011;6257;57.634;18.310;2022-12-10T08:42:36;3.03;;;2.70;;
12385;SDS011;6257;57.634;18.310;2022-12-10T08:45:03;3.40;;;2.73;;
12385;SDS011;6257;57.634;18.310;2022-12-10T08:47:31;3.20;;;2.90;;
12385;SDS011;6257;57.634;18.310;2022-12-10T08:50:00;3.40;;;3.10;;
12385;SDS011;6257;57.634;18.310;2022-12-10T08:52:29;2.60;;;2.40;;
12385;SDS011;6257;57.634;18.310;2022-12-10T08:54:56;2.90;;;1.90;;
12385;SDS011;6257;57.634;18.310;2022-12-10T08:57:23;2.73;;;1.90;;
12385;SDS011;6257;57.634;18.310;2022-12-10T08:59:50;2.73;;;2.30;;
12385;SDS011;6257;57.634;18.310;2022-12-10T09:02:17;2.53;;;2.33;;
12385;SDS011;6257;57.634;18.310;2022-12-10T09:04:44;1.63;;;1.33;;
12385;SDS011;6257;57.634;18.310;2022-12-10T09:07:13;2.10;;;1.63;;
12385;SDS011;6257;57.634;18.310;2022-12-10T09:09:40;2.60;;;1.80;;
12385;SDS011;6257;57.634;18.310;2022-12-10T09:12:07;2.23;;;1.40;;
12385;SDS011;6257;57.634;18.310;2022-12-10T09:14:34;1.43;;;1.20;;
12385;SDS011;6257;57.634;18.310;2022-12-10T09:17:03;1.93;;;1.20;;
12385;SDS011;6257;57.634;18.310;2022-12-10T09:19:31;1.20;;;1.10;;
12385;SDS011;6257;57.634;18.310;2022-12-10T09:21:58;1.70;;;1.20;;
12385;SDS011;6257;57.634;18.310;2022-12-10T09:24:27;2.03;;;1.23;;
12385;SDS011;6257;57.634;18.310;2022-12-10T09:26:54;1.87;;;1.30;;
12385;SDS011;6257;57.634;18.310;2022-12-10T09:29:21;1.33;;;1.23;;
12385;SDS011;6257;57.634;18.310;2022-12-10T09:31:49;2.03;;;1.67;;
12385;SDS011;6257;57.634;18.310;2022-12-10T09:34:17;1.10;;;1.00;;
12385;SDS011;6257;57.634;18.310;2022-12-10T09:36:46;1.63;;;1.20;;
12385;SDS011;6257;57.634;18.310;2022-12-10T09:39:14;3.77;;;2.30;;
12385;SDS011;6257;57.634;18.310;2022-12-10T09:44:49;4.47;;;2.67;;
12385;SDS011;6257;57.634;18.310;2022-12-10T09:47:23;1.50;;;1.20;;
12385;SDS011;6257;57.634;18.310;2022-12-10T09:49:58;1.73;;;1.33;;
12385;SDS011;6257;57.634;18.310;2022-12-10T09:52:33;1.00;;;0.90;;
12385;SDS011;6257;57.634;18.310;2022-12-10T09:55:05;2.80;;;1.27;;
12385;SDS011;6257;57.634;18.310;2022-12-10T09:57:39;1.30;;;1.20;;
12385;SDS011;6257;57.634;18.310;2022-12-10T10:00:18;1.97;;;1.13;;
12385;SDS011;6257;57.634;18.310;2022-12-10T10:02:48;2.07;;;1.50;;
12385;SDS011;6257;57.634;18.310;2022-12-10T10:05:17;1.60;;;1.50;;
12385;SDS011;6257;57.634;18.310;2022-12-10T10:07:48;2.50;;;1.40;;
12385;SDS011;6257;57.634;18.310;2022-12-10T10:10:21;1.90;;;1.40;;
12385;SDS011;6257;57.634;18.310;2022-12-10T10:12:51;2.07;;;1.23;;
12385;SDS011;6257;57.634;18.310;2022-12-10T10:15:22;1.97;;;1.40;;
12385;SDS011;6257;57.634;18.310;2022-12-10T10:17:54;1.67;;;1.50;;
12385;SDS011;6257;57.634;18.310;2022-12-10T10:20:24;3.00;;;1.70;;
12385;SDS011;6257;57.634;18.310;2022-12-10T10:22:52;2.10;;;1.40;;
12385;SDS011;6257;57.634;18.310;2022-12-10T10:25:22;1.53;;;1.30;;
12385;SDS011;6257;57.634;18.310;2022-12-10T10:27:50;1.93;;;1.50;;
12385;SDS011;6257;57.634;18.310;2022-12-10T10:30:18;2.47;;;2.00;;
12385;SDS011;6257;57.634;18.310;2022-12-10T10:32:50;2.27;;;1.77;;
12385;SDS011;6257;57.634;18.310;2022-12-10T10:35:20;1.67;;;1.37;;
12385;SDS011;6257;57.634;18.310;2022-12-10T10:37:49;2.57;;;1.70;;
12385;SDS011;6257;57.634;18.310;2022-12-10T10:40:22;2.70;;;1.77;;
12385;SDS011;6257;57.634;18.310;2022-12-10T10:42:51;2.80;;;1.63;;
12385;SDS011;6257;57.634;18.310;2022-12-10T10:45:33;3.03;;;1.90;;
12385;SDS011;6257;57.634;18.310;2022-12-10T10:48:20;2.27;;;1.33;;
12385;SDS011;6257;57.634;18.310;2022-12-10T10:50:50;2.23;;;1.63;;
12385;SDS011;6257;57.634;18.310;2022-12-10T10:53:21;3.33;;;1.80;;
12385;SDS011;6257;57.634;18.310;2022-12-10T10:55:50;1.10;;;1.00;;
12385;SDS011;6257;57.634;18.310;2022-12-10T10:58:19;1.60;;;1.50;;
12385;SDS011;6257;57.634;18.310;2022-12-10T11:00:53;1.73;;;1.20;;
12385;SDS011;6257;57.634;18.310;2022-12-10T11:03:22;1.93;;;1.60;;
12385;SDS011;6257;57.634;18.310;2022-12-10T11:05:50;2.10;;;1.70;;
12385;SDS011;6257;57.634;18.310;2022-12-10T11:08:17;1.50;;;1.40;;
12385;SDS011;6257;57.634;18.310;2022-12-10T11:10:49;3.07;;;2.77;;
12385;SDS011;6257;57.634;18.310;2022-12-10T11:13:19;1.50;;;1.37;;
12385;SDS011;6257;57.634;18.310;2022-12-10T11:15:54;3.30;;;1.67;;
12385;SDS011;6257;57.634;18.310;2022-12-10T11:18:29;4.47;;;2.20;;
12385;SDS011;6257;57.634;18.310;2022-12-10T11:21:01;2.60;;;1.80;;
12385;SDS011;6257;57.634;18.310;2022-12-10T11:23:31;1.33;;;1.20;;
12385;SDS011;6257;57.634;18.310;2022-12-10T11:26:09;2.97;;;1.90;;
12385;SDS011;6257;57.634;18.310;2022-12-10T11:28:49;2.40;;;1.60;;
12385;SDS011;6257;57.634;18.310;2022-12-10T11:31:28;3.30;;;2.03;;
12385;SDS011;6257;57.634;18.310;2022-12-10T11:34:08;2.30;;;1.90;;
12385;SDS011;6257;57.634;18.310;2022-12-10T11:36:46;4.20;;;2.90;;
12385;SDS011;6257;57.634;18.310;2022-12-10T11:39:35;2.13;;;1.73;;
12385;SDS011;6257;57.634;18.310;2022-12-10T11:42:21;2.17;;;1.77;;
12385;SDS011;6257;57.634;18.310;2022-12-10T11:44:57;7.13;;;4.27;;
12385;SDS011;6257;57.634;18.310;2022-12-10T11:47:34;8.50;;;3.93;;
12385;SDS011;6257;57.634;18.310;2022-12-10T11:50:15;5.17;;;4.03;;
12385;SDS011;6257;57.634;18.310;2022-12-10T11:52:53;14.17;;;6.87;;
12385;SDS011;6257;57.634;18.310;2022-12-10T11:55:32;19.47;;;9.70;;
12385;SDS011;6257;57.634;18.310;2022-12-10T11:58:16;22.20;;;9.60;;
12385;SDS011;6257;57.634;18.310;2022-12-10T12:00:54;17.20;;;8.23;;
12385;SDS011;6257;57.634;18.310;2022-12-10T12:03:30;11.20;;;5.53;;
12385;SDS011;6257;57.634;18.310;2022-12-10T12:06:18;6.07;;;3.93;;
12385;SDS011;6257;57.634;18.310;2022-12-10T12:09:10;5.43;;;3.47;;
12385;SDS011;6257;57.634;18.310;2022-12-10T12:11:47;4.73;;;2.63;;
12385;SDS011;6257;57.634;18.310;2022-12-10T12:14:24;3.47;;;2.67;;
12385;SDS011;6257;57.634;18.310;2022-12-10T12:16:57;2.53;;;2.13;;
12385;SDS011;6257;57.634;18.310;2022-12-10T12:19:32;3.63;;;2.57;;
12385;SDS011;6257;57.634;18.310;2022-12-10T12:22:06;3.20;;;2.37;;
12385;SDS011;6257;57.634;18.310;2022-12-10T12:24:40;2.80;;;2.50;;
12385;SDS011;6257;57.634;18.310;2022-12-10T12:27:12;3.23;;;2.60;;
12385;SDS011;6257;57.634;18.310;2022-12-10T12:29:50;4.67;;;2.77;;
12385;SDS011;6257;57.634;18.310;2022-12-10T12:32:25;3.97;;;3.13;;
12385;SDS011;6257;57.634;18.310;2022-12-10T12:34:56;4.80;;;3.57;;
12385;SDS011;6257;57.634;18.310;2022-12-10T12:37:30;3.60;;;2.70;;
12385;SDS011;6257;57.634;18.310;2022-12-10T12:40:09;5.37;;;3.03;;
12385;SDS011;6257;57.634;18.310;2022-12-10T12:42:41;5.20;;;2.70;;
12385;SDS011;6257;57.634;18.310;2022-12-10T12:45:13;7.73;;;3.17;;
12385;SDS011;6257;57.634;18.310;2022-12-10T12:47:46;3.40;;;2.17;;
12385;SDS011;6257;57.634;18.310;2022-12-10T12:50:24;5.27;;;3.00;;
12385;SDS011;6257;57.634;18.310;2022-12-10T12:52:56;16.93;;;5.70;;
12385;SDS011;6257;57.634;18.310;2022-12-10T12:55:27;11.77;;;4.37;;
12385;SDS011;6257;57.634;18.310;2022-12-10T12:58:04;11.70;;;4.50;;
12385;SDS011;6257;57.634;18.310;2022-12-10T13:00:45;21.40;;;6.77;;
12385;SDS011;6257;57.634;18.310;2022-12-10T13:03:24;21.20;;;6.80;;
12385;SDS011;6257;57.634;18.310;2022-12-10T13:06:11;17.90;;;7.57;;
12385;SDS011;6257;57.634;18.310;2022-12-10T13:08:44;6.73;;;2.80;;
12385;SDS011;6257;57.634;18.310;2022-12-10T13:11:16;7.83;;;2.87;;
12385;SDS011;6257;57.634;18.310;2022-12-10T13:14:11;8.13;;;2.90;;
12385;SDS011;6257;57.634;18.310;2022-12-10T13:16:58;11.40;;;4.17;;
12385;SDS011;6257;57.634;18.310;2022-12-10T13:19:29;4.23;;;2.10;;
12385;SDS011;6257;57.634;18.310;2022-12-10T13:21:59;2.77;;;1.60;;
12385;SDS011;6257;57.634;18.310;2022-12-10T13:24:59;1.97;;;1.60;;
12385;SDS011;6257;57.634;18.310;2022-12-10T13:27:36;4.97;;;1.90;;
12385;SDS011;6257;57.634;18.310;2022-12-10T13:30:05;2.53;;;1.73;;
12385;SDS011;6257;57.634;18.310;2022-12-10T13:32:53;1.40;;;1.30;;
12385;SDS011;6257;57.634;18.310;2022-12-10T13:35:29;1.73;;;1.20;;
12385;SDS011;6257;57.634;18.310;2022-12-10T13:38:03;2.00;;;1.43;;
12385;SDS011;6257;57.634;18.310;2022-12-10T13:40:40;1.30;;;1.20;;
12385;SDS011;6257;57.634;18.310;2022-12-10T13:43:26;2.13;;;1.70;;
12385;SDS011;6257;57.634;18.310;2022-12-10T13:46:26;3.57;;;2.50;;
12385;SDS011;6257;57.634;18.310;2022-12-10T13:48:57;3.93;;;2.50;;
12385;SDS011;6257;57.634;18.310;2022-12-10T13:57:22;3.37;;;2.57;;
12385;SDS011;6257;57.634;18.310;2022-12-10T14:00:00;3.33;;;2.20;;
12385;SDS011;6257;57.634;18.310;2022-12-10T14:02:41;3.37;;;2.37;;
12385;SDS011;6257;57.634;18.310;2022-12-10T14:05:34;4.70;;;2.60;;
12385;SDS011;6257;57.634;18.310;2022-12-10T14:08:15;4.00;;;2.90;;
12385;SDS011;6257;57.634;18.310;2022-12-10T14:10:46;4.10;;;2.77;;
12385;SDS011;6257;57.634;18.310;2022-12-10T14:13:16;7.20;;;5.43;;
12385;SDS011;6257;57.634;18.310;2022-12-10T14:15:53;7.67;;;5.00;;
12385;SDS011;6257;57.634;18.310;2022-12-10T14:18:23;10.33;;;6.03;;
12385;SDS011;6257;57.634;18.310;2022-12-10T14:20:54;9.27;;;6.23;;
12385;SDS011;6257;57.634;18.310;2022-12-10T14:23:25;6.97;;;5.00;;
12385;SDS011;6257;57.634;18.310;2022-12-10T14:26:04;8.77;;;6.47;;
12385;SDS011;6257;57.634;18.310;2022-12-10T14:28:39;8.40;;;4.90;;
12385;SDS011;6257;57.634;18.310;2022-12-10T14:31:10;5.43;;;4.33;;
12385;SDS011;6257;57.634;18.310;2022-12-10T14:33:43;3.23;;;2.53;;
12385;SDS011;6257;57.634;18.310;2022-12-10T14:36:16;2.60;;;2.27;;
12385;SDS011;6257;57.634;18.310;2022-12-10T14:38:48;2.47;;;2.13;;
12385;SDS011;6257;57.634;18.310;2022-12-10T14:41:17;2.63;;;2.13;;
12385;SDS011;6257;57.634;18.310;2022-12-10T14:43:48;2.57;;;2.20;;
12385;SDS011;6257;57.634;18.310;2022-12-10T14:46:16;1.70;;;1.60;;
12385;SDS011;6257;57.634;18.310;2022-12-10T14:48:48;1.77;;;1.47;;
12385;SDS011;6257;57.634;18.310;2022-12-10T14:51:18;1.57;;;1.43;;
12385;SDS011;6257;57.634;18.310;2022-12-10T14:53:47;1.93;;;1.60;;
12385;SDS011;6257;57.634;18.310;2022-12-10T14:56:18;1.50;;;1.40;;
12385;SDS011;6257;57.634;18.310;2022-12-10T14:58:52;2.33;;;1.30;;
12385;SDS011;6257;57.634;18.310;2022-12-10T15:01:26;2.33;;;1.63;;
12385;SDS011;6257;57.634;18.310;2022-12-10T15:03:55;3.67;;;2.20;;
12385;SDS011;6257;57.634;18.310;2022-12-10T15:06:26;2.77;;;2.00;;
12385;SDS011;6257;57.634;18.310;2022-12-10T15:08:55;3.27;;;2.97;;
12385;SDS011;6257;57.634;18.310;2022-12-10T15:11:24;2.00;;;1.77;;
12385;SDS011;6257;57.634;18.310;2022-12-10T15:13:54;3.10;;;2.63;;
12385;SDS011;6257;57.634;18.310;2022-12-10T15:16:29;2.90;;;2.60;;
12385;SDS011;6257;57.634;18.310;2022-12-10T15:19:08;2.93;;;2.20;;
12385;SDS011;6257;57.634;18.310;2022-12-10T15:21:44;3.17;;;2.00;;